Time;durP1;ratioP1;P1;durP2;ratioP2;P2;SDS_P1;SDS_P2;PMS_P1;PMS_P2;Temp;Humidity;BMP_temperature;BMP_pressure;BME280_temperature;BME280_humidity;BME280_pressure;Samples;Min_cycle;Max_cycle;Signal;HPM_P1;HPM_P2
2021/06/03 00:00:17;;;;;;;4.83;2.37;;;23.00;99.90;;;;;;5061812;28;20241;-52
2021/06/03 00:02:46;;;;;;;3.83;2.20;;;22.80;99.90;;;;;;5065811;28;20663;-51
2021/06/03 00:05:14;;;;;;;3.23;2.60;;;22.70;99.90;;;;;;5053153;28;20204;-52
2021/06/03 00:07:41;;;;;;;2.80;2.37;;;22.60;99.90;;;;;;5063452;28;20238;-51
2021/06/03 00:10:09;;;;;;;3.00;2.10;;;22.50;99.90;;;;;;5063041;28;20286;-50
2021/06/03 00:12:36;;;;;;;3.00;2.60;;;22.50;98.90;;;;;;5068600;28;20233;-50
2021/06/03 00:15:06;;;;;;;3.17;2.33;;;22.50;97.20;;;;;;5072102;28;20210;-50
2021/06/03 00:17:33;;;;;;;3.90;2.20;;;22.30;99.90;;;;;;5061877;28;20321;-50
2021/06/03 00:20:00;;;;;;;5.83;2.90;;;22.10;99.90;;;;;;5065176;28;20675;-51
2021/06/03 00:22:26;;;;;;;3.17;2.43;;;22.10;99.90;;;;;;5066585;28;20298;-52
2021/06/03 00:24:53;;;;;;;5.80;2.03;;;22.00;99.90;;;;;;5067621;28;20637;-51
2021/06/03 00:27:20;;;;;;;2.37;2.17;;;22.10;99.90;;;;;;5044057;28;20294;-51
2021/06/03 00:29:48;;;;;;;2.70;2.40;;;22.10;99.90;;;;;;5051979;28;20275;-50
2021/06/03 00:32:15;;;;;;;2.93;2.30;;;22.20;99.00;;;;;;5066573;28;20299;-50
2021/06/03 00:34:42;;;;;;;2.53;2.10;;;22.00;99.90;;;;;;5058685;28;20291;-51
2021/06/03 00:37:08;;;;;;;2.60;1.97;;;22.00;99.90;;;;;;5061388;28;20606;-51
2021/06/03 00:39:35;;;;;;;4.60;2.50;;;21.70;99.90;;;;;;5058422;28;20668;-50
2021/06/03 00:42:02;;;;;;;2.10;1.90;;;21.80;99.40;;;;;;5060123;28;20584;-50
2021/06/03 00:44:29;;;;;;;2.40;2.07;;;21.60;99.90;;;;;;5045632;28;20807;-51
2021/06/03 00:46:56;;;;;;;2.73;2.13;;;21.60;99.90;;;;;;5083280;28;20248;-51
2021/06/03 00:49:26;;;;;;;2.17;1.97;;;21.50;99.90;;;;;;5079825;28;20288;-51
2021/06/03 00:51:54;;;;;;;3.17;2.00;;;21.40;99.90;;;;;;5084778;28;20264;-52
2021/06/03 00:54:21;;;;;;;2.20;1.93;;;21.50;99.90;;;;;;5078891;28;20283;-52
2021/06/03 00:56:48;;;;;;;4.60;1.80;;;21.40;99.90;;;;;;5083546;28;20234;-52
2021/06/03 00:59:14;;;;;;;3.10;1.77;;;21.40;99.90;;;;;;5079388;28;20325;-51
2021/06/03 01:01:41;;;;;;;2.07;1.83;;;21.60;99.90;;;;;;5080925;28;20239;-52
2021/06/03 01:04:09;;;;;;;2.37;1.80;;;21.40;99.90;;;;;;5077753;28;20309;-51
2021/06/03 01:06:36;;;;;;;2.97;1.70;;;21.50;99.90;;;;;;5082894;28;20296;-52
2021/06/03 01:09:11;;;;;;;3.60;2.10;;;21.50;99.90;;;;;;5081945;28;20535;-51
2021/06/03 01:11:55;;;;;;;3.93;1.83;;;21.30;99.90;;;;;;5081771;28;20647;-49
2021/06/03 01:14:27;;;;;;;4.80;2.10;;;21.30;99.90;;;;;;5061613;28;20205;-50
2021/06/03 01:16:57;;;;;;;2.07;1.87;;;21.10;99.90;;;;;;5082873;28;20295;-50
2021/06/03 01:19:34;;;;;;;1.93;1.70;;;21.30;99.90;;;;;;5059901;28;20193;-51
2021/06/03 01:22:15;;;;;;;2.83;1.87;;;21.30;99.90;;;;;;5083966;28;20231;-52
2021/06/03 01:24:45;;;;;;;1.83;1.53;;;21.20;99.90;;;;;;5079475;28;20223;-50
2021/06/03 01:27:18;;;;;;;2.10;1.90;;;21.10;99.90;;;;;;5081906;28;20292;-51
2021/06/03 01:29:51;;;;;;;1.80;1.53;;;21.10;99.90;;;;;;5062345;28;20652;-51
2021/06/03 01:32:19;;;;;;;1.83;1.73;;;21.20;99.90;;;;;;5081746;28;20245;-51
2021/06/03 01:34:48;;;;;;;3.87;1.77;;;21.20;99.90;;;;;;5078459;28;20214;-51
2021/06/03 01:37:16;;;;;;;3.00;1.70;;;21.30;99.90;;;;;;5081862;28;20648;-50
2021/06/03 01:39:44;;;;;;;3.40;2.10;;;21.10;99.90;;;;;;5082904;28;20313;-51
2021/06/03 01:42:14;;;;;;;3.83;1.80;;;21.20;99.90;;;;;;5082808;28;20326;-50
2021/06/03 01:44:42;;;;;;;1.87;1.77;;;21.10;99.90;;;;;;5081010;28;20317;-51
2021/06/03 01:47:09;;;;;;;1.63;1.40;;;21.00;99.90;;;;;;5063253;28;20195;-50
2021/06/03 01:49:37;;;;;;;1.80;1.70;;;21.00;99.90;;;;;;5081463;28;20211;-49
2021/06/03 01:52:05;;;;;;;1.70;1.60;;;21.00;99.90;;;;;;5079084;28;20632;-50
2021/06/03 01:54:32;;;;;;;2.93;1.83;;;20.90;99.90;;;;;;5081050;28;20250;-51
2021/06/03 01:57:00;;;;;;;1.80;1.70;;;20.90;99.90;;;;;;5082232;28;20206;-50
2021/06/03 01:59:27;;;;;;;3.07;1.83;;;20.80;99.90;;;;;;5065960;28;20687;-50
2021/06/03 02:01:54;;;;;;;1.70;1.57;;;20.80;99.90;;;;;;5080871;28;20256;-50
2021/06/03 02:04:21;;;;;;;2.00;1.70;;;20.70;99.90;;;;;;5077428;28;20632;-50
2021/06/03 02:06:48;;;;;;;2.33;1.70;;;20.90;99.90;;;;;;5064524;28;20215;-50
2021/06/03 02:09:15;;;;;;;2.83;1.70;;;21.00;99.90;;;;;;5074770;28;20357;-51
2021/06/03 02:11:45;;;;;;;2.47;1.87;;;21.00;99.90;;;;;;5081245;28;20293;-50
2021/06/03 02:14:15;;;;;;;2.10;1.90;;;20.90;99.90;;;;;;5081658;28;20927;-50
2021/06/03 02:16:48;;;;;;;1.93;1.73;;;20.80;99.90;;;;;;5080838;28;20325;-50
2021/06/03 02:19:31;;;;;;;6.03;2.20;;;20.70;99.90;;;;;;5080603;28;20307;-50
2021/06/03 02:22:00;;;;;;;2.10;1.93;;;20.70;99.90;;;;;;5085637;28;20297;-51
2021/06/03 02:24:27;;;;;;;2.20;2.00;;;20.50;99.90;;;;;;5083844;28;20286;-50
2021/06/03 02:26:55;;;;;;;2.00;1.90;;;20.60;99.90;;;;;;5089053;28;20241;-50
2021/06/03 02:29:24;;;;;;;3.00;1.93;;;20.60;99.90;;;;;;5085234;28;20305;-50
2021/06/03 02:31:51;;;;;;;2.07;1.80;;;20.70;99.90;;;;;;5084129;28;20289;-50
2021/06/03 02:34:18;;;;;;;3.03;1.67;;;20.60;99.90;;;;;;5078918;28;20195;-50
2021/06/03 02:36:45;;;;;;;2.30;2.10;;;20.80;99.90;;;;;;5063552;28;20310;-50
2021/06/03 02:39:12;;;;;;;3.33;1.97;;;20.80;99.90;;;;;;5081663;28;20632;-50
2021/06/03 02:41:39;;;;;;;4.07;2.10;;;20.70;99.90;;;;;;5067366;28;20499;-51
2021/06/03 02:44:06;;;;;;;2.83;2.10;;;20.70;99.90;;;;;;5083133;28;20248;-50
2021/06/03 02:46:33;;;;;;;3.37;1.73;;;20.70;99.90;;;;;;5084442;28;20657;-50
2021/06/03 02:49:00;;;;;;;2.70;2.50;;;20.40;99.90;;;;;;5083492;28;20692;-50
2021/06/03 02:51:27;;;;;;;4.67;2.07;;;20.20;99.90;;;;;;5085597;28;20237;-51
2021/06/03 02:53:53;;;;;;;2.50;2.30;;;20.20;99.90;;;;;;5085502;28;20246;-51
2021/06/03 02:56:20;;;;;;;3.27;2.20;;;20.30;99.90;;;;;;5084938;28;20210;-50
2021/06/03 02:58:47;;;;;;;2.37;2.17;;;20.20;99.90;;;;;;5082989;28;20302;-50
2021/06/03 03:01:14;;;;;;;2.80;2.03;;;20.20;99.90;;;;;;5083811;28;20563;-50
2021/06/03 03:03:41;;;;;;;2.70;2.27;;;20.20;99.90;;;;;;5065141;28;20800;-50
2021/06/03 03:06:08;;;;;;;2.80;2.50;;;20.30;99.90;;;;;;5086731;28;20198;-51
2021/06/03 03:08:35;;;;;;;3.47;2.70;;;20.40;99.90;;;;;;5081040;28;20891;-51
2021/06/03 03:11:05;;;;;;;2.70;2.50;;;20.50;99.90;;;;;;5085672;28;20194;-51
2021/06/03 03:13:32;;;;;;;3.60;2.70;;;20.30;99.90;;;;;;5082128;28;20285;-51
2021/06/03 03:15:59;;;;;;;4.93;2.80;;;20.30;99.90;;;;;;5080977;28;20256;-51
2021/06/03 03:18:26;;;;;;;2.40;2.20;;;20.40;99.90;;;;;;5080534;28;20614;-50
2021/06/03 03:20:53;;;;;;;2.90;2.70;;;20.20;99.90;;;;;;5084445;28;20195;-50
2021/06/03 03:23:20;;;;;;;2.23;2.03;;;20.10;99.90;;;;;;5083926;28;20226;-51
2021/06/03 03:25:47;;;;;;;3.07;2.77;;;20.20;99.90;;;;;;5083880;28;20187;-51
2021/06/03 03:28:14;;;;;;;2.77;2.53;;;20.30;99.90;;;;;;5079697;28;20195;-51
2021/06/03 03:30:43;;;;;;;2.93;2.67;;;20.40;99.90;;;;;;5081729;28;20252;-51
2021/06/03 03:33:11;;;;;;;3.53;2.93;;;20.40;99.90;;;;;;5086115;28;20194;-51
2021/06/03 03:35:39;;;;;;;3.23;2.93;;;20.10;99.90;;;;;;5081048;28;20725;-51
2021/06/03 03:38:06;;;;;;;4.43;3.07;;;19.90;99.90;;;;;;5080746;28;20245;-51
2021/06/03 03:40:33;;;;;;;3.37;3.00;;;20.00;99.90;;;;;;5083226;28;20230;-51
2021/06/03 03:43:00;;;;;;;5.17;3.37;;;20.10;99.90;;;;;;5083995;28;20230;-51
2021/06/03 03:45:27;;;;;;;3.90;2.87;;;20.10;99.90;;;;;;5083227;28;20264;-51
2021/06/03 03:47:54;;;;;;;3.30;3.00;;;20.00;99.90;;;;;;5082767;28;20230;-51
2021/06/03 03:50:22;;;;;;;3.37;3.07;;;20.00;99.90;;;;;;5081906;28;20215;-52
2021/06/03 03:52:50;;;;;;;3.57;3.27;;;20.00;99.90;;;;;;5065231;28;20298;-51
2021/06/03 03:55:17;;;;;;;4.30;3.40;;;19.80;99.90;;;;;;5081082;28;20205;-51
2021/06/03 03:57:46;;;;;;;3.97;2.90;;;19.80;99.90;;;;;;5083979;28;20256;-52
2021/06/03 04:00:15;;;;;;;5.33;3.50;;;19.70;99.90;;;;;;5083252;28;21367;-50
2021/06/03 04:02:43;;;;;;;4.00;3.23;;;19.70;99.90;;;;;;5079003;28;20252;-51
2021/06/03 04:05:10;;;;;;;4.27;3.87;;;19.60;99.90;;;;;;5062499;28;20199;-51
2021/06/03 04:07:38;;;;;;;3.97;3.57;;;19.60;99.90;;;;;;5082816;28;20618;-51
2021/06/03 04:10:16;;;;;;;3.63;3.33;;;19.70;99.90;;;;;;5083631;28;20205;-51
2021/06/03 04:12:44;;;;;;;4.67;3.27;;;19.70;99.90;;;;;;5080689;28;20807;-51
2021/06/03 04:15:12;;;;;;;6.27;3.53;;;19.60;99.90;;;;;;5082628;28;20251;-52
2021/06/03 04:17:39;;;;;;;5.00;3.73;;;19.60;99.90;;;;;;5082760;28;20276;-51
2021/06/03 04:20:15;;;;;;;3.70;3.20;;;19.60;99.90;;;;;;5081654;28;20276;-51
2021/06/03 04:22:41;;;;;;;3.83;3.53;;;19.80;99.90;;;;;;5082012;28;20277;-51
2021/06/03 04:25:09;;;;;;;7.37;3.63;;;19.70;99.90;;;;;;5063326;28;20277;-51
2021/06/03 04:27:36;;;;;;;5.90;4.60;;;19.70;99.90;;;;;;5082938;28;20194;-51
2021/06/03 04:30:07;;;;;;;4.70;3.60;;;19.50;99.90;;;;;;5081554;28;20290;-51
2021/06/03 04:32:34;;;;;;;4.50;4.10;;;19.50;99.90;;;;;;5080325;28;20353;-50
2021/06/03 04:35:03;;;;;;;4.57;3.90;;;19.60;99.90;;;;;;5084709;28;20234;-51
2021/06/03 04:37:30;;;;;;;4.17;3.87;;;19.60;99.90;;;;;;5081789;28;20309;-51
2021/06/03 04:39:57;;;;;;;4.17;3.77;;;19.40;99.90;;;;;;5081401;28;20649;-50
2021/06/03 04:42:24;;;;;;;4.50;4.10;;;19.40;99.90;;;;;;5082701;28;20620;-50
2021/06/03 04:44:51;;;;;;;6.07;4.37;;;19.40;99.90;;;;;;5080726;28;20652;-50
2021/06/03 04:47:18;;;;;;;4.50;3.90;;;19.50;99.90;;;;;;5081275;28;20386;-50
2021/06/03 04:49:45;;;;;;;7.67;4.20;;;19.40;99.90;;;;;;5080411;28;20211;-49
2021/06/03 04:52:31;;;;;;;4.83;4.37;;;19.40;99.90;;;;;;5080209;28;20287;-49
2021/06/03 04:55:06;;;;;;;5.87;5.03;;;19.40;99.90;;;;;;5083896;28;20259;-49
2021/06/03 04:57:33;;;;;;;5.83;5.23;;;19.50;99.90;;;;;;5060210;28;20210;-50
2021/06/03 05:00:00;;;;;;;5.60;5.00;;;19.40;99.90;;;;;;5080622;28;20257;-56
2021/06/03 05:02:27;;;;;;;6.60;5.00;;;19.30;99.90;;;;;;5080758;28;20202;-50
2021/06/03 05:04:54;;;;;;;6.13;4.97;;;19.20;99.90;;;;;;5081062;28;20269;-50
2021/06/03 05:07:21;;;;;;;6.07;5.07;;;19.30;99.90;;;;;;5081740;28;20228;-50
2021/06/03 05:09:48;;;;;;;6.17;5.20;;;19.60;99.90;;;;;;5061096;28;20721;-50
2021/06/03 05:12:15;;;;;;;5.30;4.70;;;19.80;99.90;;;;;;5064871;28;20392;-50
2021/06/03 05:14:44;;;;;;;5.83;4.60;;;20.00;99.90;;;;;;5081205;28;20198;-49
2021/06/03 05:17:11;;;;;;;7.07;5.23;;;20.00;99.90;;;;;;5082618;28;20245;-50
2021/06/03 05:19:39;;;;;;;6.90;5.23;;;19.90;99.90;;;;;;5081017;28;20246;-50
2021/06/03 05:22:06;;;;;;;9.20;5.17;;;19.70;99.90;;;;;;5081107;28;20280;-50
2021/06/03 05:24:33;;;;;;;6.73;5.43;;;19.80;99.90;;;;;;5062198;28;20244;-50
2021/06/03 05:27:00;;;;;;;7.20;5.07;;;19.80;99.90;;;;;;5080229;28;20577;-50
2021/06/03 05:29:28;;;;;;;6.93;5.80;;;19.80;99.90;;;;;;5080127;28;20291;-50
2021/06/03 05:31:55;;;;;;;6.97;5.37;;;20.00;99.90;;;;;;5081631;28;20259;-50
2021/06/03 05:34:22;;;;;;;5.77;5.00;;;20.10;99.90;;;;;;5062855;28;20501;-49
2021/06/03 05:36:50;;;;;;;7.40;5.63;;;20.00;99.90;;;;;;5079990;28;20220;-49
2021/06/03 05:39:17;;;;;;;6.27;5.67;;;20.20;99.90;;;;;;5082677;28;20258;-50
2021/06/03 05:41:44;;;;;;;7.73;5.53;;;20.20;99.90;;;;;;5080126;28;20235;-49
2021/06/03 05:44:12;;;;;;;6.60;5.77;;;20.30;99.90;;;;;;5072264;28;20365;-50
2021/06/03 05:46:40;;;;;;;8.00;6.00;;;20.30;99.90;;;;;;5065639;28;20280;-50
2021/06/03 05:49:08;;;;;;;6.30;5.33;;;20.10;99.90;;;;;;5081291;28;20205;-50
2021/06/03 05:51:37;;;;;;;8.30;6.07;;;19.90;99.90;;;;;;5084301;28;20198;-50
2021/06/03 05:54:04;;;;;;;8.33;5.70;;;20.20;99.90;;;;;;5086762;28;20275;-50
2021/06/03 05:56:32;;;;;;;11.00;7.10;;;20.10;99.90;;;;;;5068370;28;20238;-50
2021/06/03 05:58:59;;;;;;;7.70;6.43;;;20.10;99.90;;;;;;5063623;28;21742;-50
2021/06/03 06:01:26;;;;;;;7.47;6.07;;;20.20;99.90;;;;;;5078325;28;20264;-50
2021/06/03 06:05:56;;;;;;;7.40;6.47;;;20.40;99.90;;;;;;5086421;28;20323;-50
2021/06/03 06:06:40;;;;;;;10.17;6.23;;;20.40;99.90;;;;;;5079999;28;20210;-53
2021/06/03 06:09:10;;;;;;;10.17;6.40;;;20.40;99.90;;;;;;5066303;28;20248;-50
2021/06/03 06:11:39;;;;;;;6.53;5.83;;;20.30;99.90;;;;;;5065202;28;20198;-50
2021/06/03 06:14:07;;;;;;;9.07;6.60;;;20.30;99.90;;;;;;5084980;28;20259;-50
2021/06/03 06:16:38;;;;;;;9.73;7.10;;;20.30;99.90;;;;;;5083560;28;20631;-50
2021/06/03 06:19:06;;;;;;;11.07;7.17;;;20.40;99.90;;;;;;5062879;28;20605;-50
2021/06/03 06:21:35;;;;;;;9.23;6.17;;;20.40;99.90;;;;;;5065530;28;20208;-50
2021/06/03 06:24:03;;;;;;;8.03;7.23;;;20.40;99.90;;;;;;5082598;28;20295;-50
2021/06/03 06:26:33;;;;;;;10.37;6.53;;;20.70;99.90;;;;;;5086371;28;21007;-50
2021/06/03 06:29:00;;;;;;;8.73;6.50;;;21.10;99.90;;;;;;5082044;28;20213;-50
2021/06/03 06:31:26;;;;;;;11.00;7.03;;;21.40;99.90;;;;;;5082000;28;20202;-49
2021/06/03 06:33:54;;;;;;;8.23;6.83;;;21.40;99.90;;;;;;5063911;28;20622;-50
2021/06/03 06:36:20;;;;;;;10.93;6.77;;;21.70;99.90;;;;;;5083837;28;20267;-50
2021/06/03 06:38:47;;;;;;;7.60;6.63;;;21.80;99.90;;;;;;5082597;28;20381;-50
2021/06/03 06:41:14;;;;;;;7.63;6.73;;;22.10;99.90;;;;;;5068012;28;20202;-49
2021/06/03 06:43:41;;;;;;;10.27;6.03;;;22.00;99.90;;;;;;5043629;28;20692;-49
2021/06/03 06:46:08;;;;;;;8.23;6.50;;;22.10;99.90;;;;;;5064417;28;20266;-50
2021/06/03 06:48:36;;;;;;;7.17;6.40;;;22.10;99.90;;;;;;5070078;28;20227;-52
2021/06/03 06:51:03;;;;;;;8.13;6.80;;;22.00;99.90;;;;;;5060814;28;20202;-50
2021/06/03 06:53:30;;;;;;;7.33;6.53;;;22.00;99.90;;;;;;5082245;28;20221;-52
2021/06/03 06:55:57;;;;;;;9.60;6.63;;;22.00;99.90;;;;;;5082211;28;20285;-50
2021/06/03 06:58:28;;;;;;;8.67;7.23;;;22.10;99.90;;;;;;5084789;28;20202;-50
2021/06/03 07:00:55;;;;;;;9.43;6.30;;;21.90;99.90;;;;;;5084372;28;20237;-50
2021/06/03 07:03:23;;;;;;;8.80;7.03;;;22.00;99.90;;;;;;5080754;28;20194;-50
2021/06/03 07:05:50;;;;;;;10.13;7.03;;;22.20;99.90;;;;;;5084975;28;20298;-50
2021/06/03 07:08:17;;;;;;;12.87;6.67;;;22.40;99.90;;;;;;5086411;28;20279;-50
2021/06/03 07:10:44;;;;;;;9.47;6.37;;;22.50;99.90;;;;;;5085420;28;20290;-50
2021/06/03 07:13:12;;;;;;;8.50;6.80;;;22.50;99.90;;;;;;5084038;28;20200;-50
2021/06/03 07:15:38;;;;;;;9.33;6.53;;;22.30;99.90;;;;;;5082030;28;20664;-50
2021/06/03 07:18:05;;;;;;;8.57;7.03;;;22.30;99.90;;;;;;5090350;28;20340;-50
2021/06/03 07:20:34;;;;;;;10.03;7.20;;;22.40;99.90;;;;;;5082939;28;20219;-50
2021/06/03 07:23:04;;;;;;;7.70;6.43;;;22.60;99.90;;;;;;5074594;28;20210;-50
2021/06/03 07:25:34;;;;;;;5.80;5.03;;;22.50;99.90;;;;;;5062489;28;20291;-52
2021/06/03 07:28:02;;;;;;;7.80;6.90;;;22.70;99.90;;;;;;5078524;28;20219;-50
2021/06/03 07:30:28;;;;;;;7.40;6.30;;;23.20;99.90;;;;;;5081342;28;20249;-49
2021/06/03 07:32:56;;;;;;;7.82;6.60;;;23.60;99.90;;;;;;5081293;28;20548;-49
2021/06/03 07:35:26;;;;;;;8.23;6.70;;;24.20;99.90;;;;;;5081519;28;20297;-49
2021/06/03 07:37:53;;;;;;;8.73;6.90;;;25.30;99.90;;;;;;5082378;28;20278;-50
2021/06/03 07:40:23;;;;;;;8.30;6.67;;;25.50;99.90;;;;;;5077651;28;20205;-49
2021/06/03 07:42:51;;;;;;;7.03;5.87;;;26.40;96.40;;;;;;5084429;28;20391;-49
2021/06/03 07:45:23;;;;;;;9.40;6.10;;;26.90;97.60;;;;;;5066169;28;20235;-49
2021/06/03 07:47:51;;;;;;;6.73;6.03;;;26.90;83.10;;;;;;5084205;28;20223;-49
2021/06/03 07:50:19;;;;;;;7.60;5.07;;;27.10;77.40;;;;;;5085090;28;20197;-49
2021/06/03 07:52:46;;;;;;;6.23;5.60;;;27.50;59.70;;;;;;5083489;28;20337;-50
2021/06/03 07:55:15;;;;;;;7.70;5.93;;;27.60;71.80;;;;;;5066884;28;20249;-49
2021/06/03 07:57:44;;;;;;;6.07;4.90;;;27.20;78.80;;;;;;5074803;28;20247;-49
2021/06/03 08:00:14;;;;;;;8.17;5.43;;;26.90;72.70;;;;;;5070124;28;20230;-50
2021/06/03 08:02:43;;;;;;;5.57;5.00;;;26.70;92.10;;;;;;5083106;28;20739;-49
2021/06/03 08:05:12;;;;;;;7.97;5.20;;;27.10;85.10;;;;;;5083113;28;20291;-50
2021/06/03 08:07:39;;;;;;;6.13;5.50;;;27.70;65.80;;;;;;5081606;28;20198;-50
2021/06/03 08:10:09;;;;;;;7.23;6.50;;;28.20;54.00;;;;;;5058642;28;20214;-50
2021/06/03 08:12:36;;;;;;;9.27;5.80;;;26.80;80.70;;;;;;5078529;28;20285;-51
2021/06/03 08:15:05;;;;;;;8.17;6.17;;;27.20;84.50;;;;;;5083039;28;20587;-48
2021/06/03 08:17:32;;;;;;;5.60;4.83;;;27.10;76.40;;;;;;5085612;28;20249;-49
2021/06/03 08:19:59;;;;;;;5.83;4.93;;;27.20;69.80;;;;;;5085292;28;20190;-49
2021/06/03 08:22:27;;;;;;;5.10;4.33;;;27.00;70.80;;;;;;5070540;28;20289;-49
2021/06/03 08:24:53;;;;;;;5.87;4.80;;;26.10;93.00;;;;;;5083438;28;20799;-50
2021/06/03 08:27:20;;;;;;;5.93;3.90;;;25.80;98.00;;;;;;5083019;28;20456;-50
2021/06/03 08:29:47;;;;;;;7.27;4.90;;;25.70;99.90;;;;;;5086087;28;20601;-50
2021/06/03 08:32:14;;;;;;;8.90;4.43;;;25.70;99.90;;;;;;5085823;28;20237;-49
2021/06/03 08:34:41;;;;;;;7.27;4.53;;;25.50;99.90;;;;;;5084842;28;20258;-50
2021/06/03 08:37:08;;;;;;;9.43;5.20;;;25.30;99.90;;;;;;5084343;28;20495;-51
2021/06/03 08:39:35;;;;;;;7.70;5.77;;;24.80;99.90;;;;;;5077479;28;20307;-51
2021/06/03 08:42:04;;;;;;;6.40;5.27;;;24.50;99.90;;;;;;5065911;28;20289;-50
2021/06/03 08:44:31;;;;;;;8.57;6.17;;;24.60;99.90;;;;;;5072561;28;20786;-51
2021/06/03 08:46:58;;;;;;;5.90;5.30;;;24.30;99.90;;;;;;5060458;28;20675;-51
2021/06/03 08:49:26;;;;;;;9.03;6.67;;;24.30;99.90;;;;;;5083059;28;20280;-51
2021/06/03 08:51:54;;;;;;;8.60;6.20;;;24.30;99.90;;;;;;5064413;28;20199;-51
2021/06/03 08:54:21;;;;;;;7.50;5.60;;;24.60;99.90;;;;;;5060736;28;20285;-51
2021/06/03 08:56:48;;;;;;;7.17;5.07;;;24.60;99.90;;;;;;5079784;28;20595;-51
2021/06/03 08:59:15;;;;;;;6.73;4.93;;;24.40;99.90;;;;;;5080993;28;20325;-51
2021/06/03 09:01:42;;;;;;;7.67;5.07;;;24.40;99.90;;;;;;5077317;28;20221;-51
2021/06/03 09:04:09;;;;;;;9.20;4.77;;;24.50;99.90;;;;;;5081502;28;20194;-51
2021/06/03 09:06:36;;;;;;;9.40;5.23;;;24.50;99.90;;;;;;5082913;28;20264;-51
2021/06/03 09:09:06;;;;;;;7.13;5.10;;;24.40;99.90;;;;;;5077432;28;20248;-51
2021/06/03 09:11:34;;;;;;;7.93;5.43;;;24.40;99.90;;;;;;5078453;28;20190;-51
2021/06/03 09:14:04;;;;;;;6.17;5.57;;;24.50;99.90;;;;;;5063006;28;20663;-52
2021/06/03 09:16:37;;;;;;;8.13;6.60;;;24.40;99.90;;;;;;5081206;28;20224;-51
2021/06/03 09:19:11;;;;;;;7.13;6.00;;;24.50;99.90;;;;;;5081689;28;20548;-51
2021/06/03 09:21:52;;;;;;;6.27;5.13;;;24.40;99.90;;;;;;5073269;28;20264;-52
2021/06/03 09:24:21;;;;;;;6.23;5.53;;;24.40;99.90;;;;;;5062207;28;20242;-51
2021/06/03 09:27:02;;;;;;;6.47;5.60;;;24.20;99.90;;;;;;5064390;28;20230;-52
2021/06/03 09:29:32;;;;;;;7.53;6.00;;;24.30;99.90;;;;;;5086836;28;20326;-51
2021/06/03 09:32:04;;;;;;;8.37;5.97;;;24.40;99.90;;;;;;5085895;28;20368;-52
2021/06/03 09:34:32;;;;;;;6.60;6.00;;;24.50;99.90;;;;;;5091020;28;20201;-51
2021/06/03 09:37:01;;;;;;;10.27;6.40;;;24.20;99.90;;;;;;5091186;28;20573;-51
2021/06/03 09:39:33;;;;;;;7.00;6.40;;;24.00;99.90;;;;;;5083148;28;20570;-51
2021/06/03 09:42:05;;;;;;;9.40;7.43;;;24.00;99.90;;;;;;5077840;28;20630;-51
2021/06/03 09:44:35;;;;;;;9.70;6.73;;;24.00;99.90;;;;;;5084935;28;20219;-51
2021/06/03 09:47:27;;;;;;;8.27;7.47;;;24.40;99.90;;;;;;5072510;28;20187;-52
2021/06/03 09:49:54;;;;;;;8.70;7.17;;;24.20;99.90;;;;;;5083382;28;20211;-51
2021/06/03 09:52:32;;;;;;;9.87;8.90;;;24.10;99.90;;;;;;5082476;28;20225;-51
2021/06/03 09:55:11;;;;;;;9.97;8.47;;;24.00;99.90;;;;;;5082027;28;20326;-51
2021/06/03 09:57:44;;;;;;;9.33;8.33;;;23.90;99.90;;;;;;5060286;28;20207;-51
2021/06/03 10:00:17;;;;;;;10.17;9.00;;;24.00;99.90;;;;;;5085169;28;20263;-51
2021/06/03 10:02:44;;;;;;;9.70;8.70;;;23.80;99.90;;;;;;5086315;28;20295;-52
2021/06/03 10:05:14;;;;;;;10.60;9.20;;;23.90;99.90;;;;;;5078049;28;20198;-51
2021/06/03 10:07:57;;;;;;;12.50;9.93;;;23.90;99.90;;;;;;5082454;28;20310;-51
2021/06/03 10:10:26;;;;;;;10.47;9.33;;;23.80;99.90;;;;;;5082511;28;20222;-51
2021/06/03 10:12:54;;;;;;;9.50;8.60;;;23.90;99.90;;;;;;5069002;28;20977;-51
2021/06/03 10:15:23;;;;;;;14.70;10.67;;;24.10;99.90;;;;;;5082783;28;20543;-51
2021/06/03 10:18:08;;;;;;;12.27;10.07;;;24.10;99.90;;;;;;5092297;28;20229;-52
2021/06/03 10:21:11;;;;;;;11.27;10.07;;;24.20;99.90;;;;;;5086393;28;20218;-52
2021/06/03 10:23:42;;;;;;;11.73;9.43;;;24.30;99.90;;;;;;5083714;28;20233;-51
2021/06/03 10:26:09;;;;;;;11.10;9.90;;;24.30;99.90;;;;;;5082460;28;20631;-51
2021/06/03 10:28:38;;;;;;;9.90;8.77;;;24.50;99.90;;;;;;5078907;28;20300;-51
2021/06/03 10:31:12;;;;;;;12.80;8.90;;;24.30;99.90;;;;;;5065622;28;20231;-51
2021/06/03 10:33:41;;;;;;;11.17;9.83;;;24.20;99.90;;;;;;5081725;28;20666;-52
2021/06/03 10:36:10;;;;;;;11.63;9.37;;;24.10;99.90;;;;;;5063603;28;20207;-52
2021/06/03 10:38:37;;;;;;;10.17;9.17;;;24.30;99.90;;;;;;5081977;28;20327;-52
2021/06/03 10:41:06;;;;;;;10.43;8.97;;;24.50;99.90;;;;;;5081756;28;20902;-52
2021/06/03 10:43:36;;;;;;;10.00;9.00;;;24.80;99.90;;;;;;5076524;28;20201;-52
2021/06/03 10:46:05;;;;;;;12.10;10.03;;;24.90;99.90;;;;;;5076686;28;20317;-51
2021/06/03 10:48:32;;;;;;;10.00;8.97;;;24.90;99.90;;;;;;5061102;28;20291;-52
2021/06/03 10:51:04;;;;;;;11.93;7.23;;;24.80;99.90;;;;;;5081007;28;20288;-52
2021/06/03 10:53:31;;;;;;;10.70;8.50;;;24.70;99.90;;;;;;5082961;28;20258;-51
2021/06/03 10:56:10;;;;;;;10.33;9.13;;;24.70;99.90;;;;;;5080442;28;20228;-51
2021/06/03 10:58:39;;;;;;;11.33;7.80;;;24.60;99.90;;;;;;5081709;28;20214;-51
2021/06/03 11:01:09;;;;;;;9.20;7.40;;;24.90;99.90;;;;;;5085568;28;20622;-52
2021/06/03 11:03:45;;;;;;;11.23;7.97;;;25.60;99.90;;;;;;5077489;28;20215;-51
2021/06/03 11:06:15;;;;;;;8.67;7.77;;;25.50;99.90;;;;;;5082791;28;20242;-51
2021/06/03 11:08:54;;;;;;;9.13;8.23;;;25.70;99.90;;;;;;5082766;28;20285;-52
2021/06/03 11:11:30;;;;;;;8.47;7.67;;;25.80;99.90;;;;;;5080687;28;20209;-52
2021/06/03 11:13:57;;;;;;;7.83;6.83;;;26.00;99.90;;;;;;5081421;28;20561;-51
2021/06/03 11:16:34;;;;;;;8.47;7.03;;;26.00;99.90;;;;;;5082164;28;20216;-51
2021/06/03 11:19:01;;;;;;;9.37;6.73;;;25.90;99.90;;;;;;5066546;28;20226;-52
2021/06/03 11:21:34;;;;;;;8.23;7.43;;;26.00;99.90;;;;;;5081174;28;20237;-51
2021/06/03 11:24:11;;;;;;;8.93;8.03;;;26.10;99.90;;;;;;5083475;28;20254;-51
2021/06/03 11:26:40;;;;;;;8.33;7.50;;;26.20;99.90;;;;;;5083554;28;20228;-51
2021/06/03 11:29:13;;;;;;;9.00;8.10;;;26.50;99.90;;;;;;5077520;28;20231;-51
2021/06/03 11:32:10;;;;;;;9.67;7.50;;;25.70;99.90;;;;;;5082251;28;20711;-51
2021/06/03 11:34:45;;;;;;;9.13;7.87;;;26.20;99.90;;;;;;5083175;28;20237;-51
2021/06/03 11:37:35;;;;;;;7.53;6.00;;;25.60;99.90;;;;;;5069611;28;20627;-51
2021/06/03 11:40:05;;;;;;;7.40;6.70;;;25.80;99.90;;;;;;5070017;28;20332;-51
2021/06/03 11:42:45;;;;;;;7.03;6.33;;;25.60;99.90;;;;;;5076136;28;20229;-51
2021/06/03 11:45:20;;;;;;;8.87;6.53;;;25.40;99.90;;;;;;5085492;28;20324;-51
2021/06/03 11:47:47;;;;;;;7.50;6.00;;;25.30;99.90;;;;;;5087033;28;20222;-51
2021/06/03 11:50:17;;;;;;;7.07;6.30;;;25.40;99.90;;;;;;5085546;28;20202;-51
2021/06/03 11:52:56;;;;;;;8.83;7.53;;;25.40;99.90;;;;;;5058545;28;20472;-51
2021/06/03 11:55:48;;;;;;;8.03;7.17;;;25.40;99.90;;;;;;5074078;28;20206;-51
2021/06/03 11:58:16;;;;;;;8.47;7.60;;;25.40;99.90;;;;;;5070787;28;20366;-56
2021/06/03 12:00:53;;;;;;;8.90;7.23;;;25.30;99.90;;;;;;5062637;28;20283;-56
2021/06/03 12:03:32;;;;;;;10.93;7.50;;;25.40;99.90;;;;;;5079513;28;20201;-56
2021/06/03 12:06:07;;;;;;;7.90;7.13;;;25.30;99.90;;;;;;5083662;28;20285;-56
2021/06/03 12:08:48;;;;;;;7.47;6.77;;;25.40;99.90;;;;;;5079527;28;20206;-56
2021/06/03 12:11:15;;;;;;;8.63;6.70;;;25.20;99.90;;;;;;5080103;28;20256;-56
2021/06/03 12:13:43;;;;;;;7.97;7.13;;;25.20;99.90;;;;;;5082651;28;20222;-56
2021/06/03 12:16:10;;;;;;;12.50;11.23;;;24.90;99.90;;;;;;5082204;28;20274;-57
2021/06/03 12:18:43;;;;;;;16.37;14.50;;;24.80;99.90;;;;;;5061904;28;20596;-57
2021/06/03 12:21:12;;;;;;;17.77;14.83;;;24.30;99.90;;;;;;5065119;28;20199;-57
2021/06/03 12:23:51;;;;;;;17.93;15.63;;;24.20;99.90;;;;;;5083048;28;20285;-56
2021/06/03 12:26:22;;;;;;;23.10;17.53;;;24.30;99.90;;;;;;5063170;28;20224;-56
2021/06/03 12:28:49;;;;;;;21.90;17.33;;;24.10;99.90;;;;;;5080601;28;20250;-57
2021/06/03 12:31:25;;;;;;;19.00;17.00;;;24.10;99.90;;;;;;5083251;28;20234;-56
2021/06/03 12:33:53;;;;;;;17.97;16.00;;;24.00;99.90;;;;;;5077016;28;20294;-56
2021/06/03 12:36:25;;;;;;;19.43;17.13;;;24.00;99.90;;;;;;5080468;28;20247;-57
2021/06/03 12:38:56;;;;;;;19.17;16.33;;;24.10;99.90;;;;;;5078872;28;20196;-57
2021/06/03 12:41:27;;;;;;;20.87;16.43;;;24.20;99.90;;;;;;5059404;28;20256;-56
2021/06/03 12:44:00;;;;;;;18.57;15.73;;;24.50;99.90;;;;;;5082950;28;20685;-57
2021/06/03 12:46:31;;;;;;;17.83;15.87;;;24.80;99.90;;;;;;5056828;28;20278;-56
2021/06/03 12:49:06;;;;;;;20.27;17.17;;;24.70;99.90;;;;;;5075181;28;20209;-57
2021/06/03 12:51:35;;;;;;;16.77;14.43;;;24.80;99.90;;;;;;5059766;28;20224;-57
2021/06/03 12:54:02;;;;;;;17.23;14.37;;;25.10;99.90;;;;;;5079436;28;20248;-57
2021/06/03 12:56:29;;;;;;;14.80;13.30;;;25.20;99.90;;;;;;5060828;28;20598;-57